Time;durP1;ratioP1;P1;durP2;ratioP2;P2;SDS_P1;SDS_P2;PMS_P1;PMS_P2;Temp;Humidity;BMP_temperature;BMP_pressure;BME280_temperature;BME280_humidity;BME280_pressure;Samples;Min_cycle;Max_cycle;Signal;HPM_P1;HPM_P2
2023/07/17 04:51:09;;;;;;;;;1.00;1.00;;;;;23.09;46.33;101517.72;5093119;27;45385;-68
2023/07/17 04:53:34;;;;;;;;;1.00;1.00;;;;;23.22;45.39;101513.78;5076215;27;45353;-69
2023/07/17 04:55:59;;;;;;;;;1.00;1.00;;;;;23.36;44.96;101518.06;5075808;27;45577;-68
2023/07/17 04:58:25;;;;;;;;;0.50;0.50;;;;;23.62;44.62;101522.16;5075619;28;45459;-69
2023/07/17 05:00:51;;;;;;;;;2.50;1.75;;;;;23.80;44.20;101525.13;5075811;28;46392;-68
2023/07/17 05:03:16;;;;;;;;;2.00;2.00;;;;;24.10;43.75;101527.84;5075860;28;47510;-68
2023/07/17 05:05:48;;;;;;;;;1.50;1.00;;;;;24.21;43.64;101523.31;5076182;27;45236;-68
2023/07/17 05:08:14;;;;;;;;;1.00;1.00;;;;;24.21;43.46;101532.38;5074903;28;46488;-68
2023/07/17 05:10:39;;;;;;;;;2.25;0.25;;;;;24.20;43.13;101516.91;5075147;28;46119;-68
2023/07/17 05:13:05;;;;;;;;;1.50;1.25;;;;;24.36;42.99;101533.72;5075736;28;49446;-68
2023/07/17 05:15:30;;;;;;;;;1.00;1.00;;;;;24.36;42.53;101535.59;5075181;28;49916;-68
2023/07/17 05:17:55;;;;;;;;;2.25;1.00;;;;;24.49;42.65;101530.75;5075335;27;45500;-69
2023/07/17 05:20:20;;;;;;;;;2.00;1.25;;;;;24.57;42.33;101538.25;5075459;28;46382;-69
2023/07/17 05:22:46;;;;;;;;;1.75;1.00;;;;;24.64;42.52;101536.69;5075439;28;52945;-68
2023/07/17 05:25:11;;;;;;;;;1.25;1.25;;;;;24.78;41.92;101533.50;5075189;27;45269;-68
2023/07/17 05:27:36;;;;;;;;;2.00;0.00;;;;;24.83;41.66;101542.19;5075731;28;45386;-68
2023/07/17 05:30:02;;;;;;;;;1.00;1.00;;;;;24.93;41.18;101540.31;5075304;28;45940;-68
2023/07/17 05:32:27;;;;;;;;;1.00;1.00;;;;;24.58;41.99;101542.75;5074293;28;45269;-67
2023/07/17 05:34:54;;;;;;;;;0.75;0.75;;;;;24.47;41.84;101550.06;5070972;28;45513;-68
2023/07/17 05:37:20;;;;;;;;;1.75;1.00;;;;;24.57;41.96;101549.22;5066527;28;45168;-68
2023/07/17 05:39:45;;;;;;;;;1.00;1.00;;;;;24.64;41.82;101543.03;5074668;28;46974;-68
2023/07/17 05:42:10;;;;;;;;;1.25;1.25;;;;;24.60;41.84;101544.31;5075011;28;47467;-69
2023/07/17 05:44:36;;;;;;;;;0.00;0.00;;;;;24.70;42.36;101558.03;5075170;28;45362;-69
2023/07/17 05:47:01;;;;;;;;;2.75;1.50;;;;;24.54;42.55;101554.97;5075249;27;45385;-68
2023/07/17 05:49:27;;;;;;;;;1.25;1.25;;;;;24.80;41.96;101562.53;5074915;27;46270;-69
2023/07/17 05:51:53;;;;;;;;;1.00;1.00;;;;;24.74;41.95;101560.38;5062935;27;45342;-69
2023/07/17 05:54:18;;;;;;;;;2.25;1.75;;;;;24.83;41.79;101558.66;5061532;28;45382;-69
2023/07/17 05:56:43;;;;;;;;;1.00;1.00;;;;;24.92;41.45;101549.59;5061337;28;45560;-68
2023/07/17 05:59:09;;;;;;;;;1.00;1.00;;;;;24.51;42.53;101567.94;5061336;28;45233;-69
2023/07/17 06:01:34;;;;;;;;;1.00;1.00;;;;;24.64;42.44;101580.56;5061680;28;45460;-68
2023/07/17 06:04:00;;;;;;;;;0.50;0.50;;;;;24.81;41.92;101577.13;5061630;28;45322;-70
2023/07/17 06:06:25;;;;;;;;;1.00;1.00;;;;;24.71;42.00;101574.34;5060431;28;57764;-70
2023/07/17 06:08:50;;;;;;;;;1.00;1.00;;;;;24.70;41.96;101588.19;5059428;28;45640;-68
2023/07/17 06:11:16;;;;;;;;;2.00;2.00;;;;;24.78;41.72;101582.88;5061235;28;45318;-68
2023/07/17 06:13:41;;;;;;;;;1.25;1.25;;;;;24.77;41.93;101586.63;5061193;28;45209;-69
2023/07/17 06:16:06;;;;;;;;;1.25;1.25;;;;;25.07;41.41;101583.81;5061325;28;47981;-68
2023/07/17 06:18:31;;;;;;;;;2.00;1.75;;;;;25.00;41.18;101584.53;5061147;28;49775;-70
2023/07/17 06:20:57;;;;;;;;;2.75;2.75;;;;;25.19;40.90;101590.03;5061579;28;45202;-71
2023/07/17 06:23:22;;;;;;;;;2.00;1.00;;;;;25.19;41.01;101588.13;5061135;28;45268;-69
2023/07/17 06:25:47;;;;;;;;;2.25;2.25;;;;;25.14;40.98;101590.47;5060874;28;45283;-69
2023/07/17 06:28:13;;;;;;;;;0.50;0.50;;;;;25.23;40.97;101588.72;5059706;28;47159;-69
2023/07/17 06:30:38;;;;;;;;;2.25;2.25;;;;;25.32;40.71;101581.50;5061416;28;45207;-70
2023/07/17 06:33:04;;;;;;;;;0.50;0.50;;;;;25.55;40.42;101592.03;5060988;28;45337;-69
2023/07/17 06:35:29;;;;;;;;;3.25;0.50;;;;;25.60;40.53;101583.41;5060721;28;45243;-68
2023/07/17 06:37:54;;;;;;;;;1.25;1.25;;;;;25.69;40.39;101582.47;5060562;28;55017;-71
2023/07/17 06:40:20;;;;;;;;;2.00;2.00;;;;;25.79;40.21;101583.34;5060858;28;45224;-68
2023/07/17 06:42:45;;;;;;;;;2.50;2.00;;;;;25.68;39.76;101586.28;5060438;28;55180;-68
2023/07/17 06:45:11;;;;;;;;;1.00;1.00;;;;;25.50;40.12;101577.00;5060508;28;46133;-68
2023/07/17 06:47:36;;;;;;;;;2.00;2.00;;;;;25.72;40.19;101573.97;5060666;28;46048;-69
2023/07/17 06:50:02;;;;;;;;;1.00;1.00;;;;;25.99;39.86;101595.16;5060092;28;46636;-67
2023/07/17 06:52:27;;;;;;;;;2.00;2.00;;;;;25.94;39.52;101594.75;5060632;28;45366;-67
2023/07/17 06:54:53;;;;;;;;;1.00;1.00;;;;;25.86;39.92;101587.22;5060078;28;45561;-68
2023/07/17 06:57:19;;;;;;;;;2.50;1.75;;;;;25.91;39.65;101595.03;5058081;28;45288;-68
2023/07/17 06:59:45;;;;;;;;;0.75;0.75;;;;;25.91;39.54;101598.63;5057652;28;45331;-68
2023/07/17 07:02:10;;;;;;;;;1.50;1.50;;;;;26.09;39.21;101609.72;5057746;28;45444;-68
2023/07/17 07:04:35;;;;;;;;;2.00;1.50;;;;;26.16;39.32;101605.34;5059692;28;59577;-69
2023/07/17 07:07:01;;;;;;;;;3.00;1.50;;;;;26.17;39.36;101607.09;5059042;28;45582;-68
2023/07/17 07:09:26;;;;;;;;;4.75;1.75;;;;;25.82;39.47;101607.78;5060061;28;45339;-68
2023/07/17 07:11:51;;;;;;;;;1.50;1.50;;;;;26.11;39.14;101602.22;5059360;28;45437;-67
2023/07/17 07:14:17;;;;;;;;;2.50;1.00;;;;;26.21;38.40;101607.63;5059761;28;56322;-68
2023/07/17 07:16:42;;;;;;;;;1.75;1.75;;;;;26.17;38.43;101611.72;5057833;28;46196;-68
2023/07/17 07:19:07;;;;;;;;;1.50;1.50;;;;;26.20;38.26;101608.69;5060162;28;45217;-68
2023/07/17 07:21:33;;;;;;;;;1.75;1.25;;;;;26.37;37.37;101613.38;5059798;28;56775;-67
2023/07/17 07:23:59;;;;;;;;;1.75;1.75;;;;;26.48;37.06;101604.94;5060014;28;45510;-67
2023/07/17 07:26:24;;;;;;;;;1.75;1.75;;;;;26.57;37.22;101608.66;5059688;28;46373;-69
2023/07/17 07:28:49;;;;;;;;;2.25;2.25;;;;;26.53;36.78;101607.25;5059805;28;45172;-68
2023/07/17 07:31:15;;;;;;;;;2.50;1.75;;;;;26.64;36.61;101616.16;5059887;28;46430;-67
2023/07/17 07:33:41;;;;;;;;;3.00;1.50;;;;;26.67;37.02;101610.34;5059717;28;45465;-66
2023/07/17 07:36:06;;;;;;;;;2.75;2.00;;;;;26.61;36.24;101604.59;5060038;28;45333;-67
2023/07/17 07:38:32;;;;;;;;;3.00;0.50;;;;;27.05;36.27;101624.94;5059163;28;54458;-68
2023/07/17 07:40:57;;;;;;;;;2.00;2.00;;;;;27.03;36.19;101633.34;5059751;28;45847;-68
2023/07/17 07:43:22;;;;;;;;;2.25;2.25;;;;;26.63;36.67;101619.91;5059007;28;54893;-68
2023/07/17 07:45:48;;;;;;;;;2.25;2.25;;;;;26.81;36.31;101627.34;5059758;28;45326;-67
2023/07/17 07:48:13;;;;;;;;;3.75;1.00;;;;;26.52;36.32;101635.78;5059614;28;45512;-67
2023/07/17 07:50:38;;;;;;;;;1.50;1.50;;;;;26.68;36.65;101634.09;5059700;28;45276;-68
2023/07/17 07:53:04;;;;;;;;;1.00;1.00;;;;;26.56;36.80;101634.44;5059408;28;45488;-70
2023/07/17 07:55:29;;;;;;;;;4.00;2.50;;;;;26.61;36.74;101634.88;5059051;28;47402;-68
2023/07/17 07:57:54;;;;;;;;;1.75;1.75;;;;;26.77;36.92;101632.31;5058731;28;45359;-69
2023/07/17 08:00:20;;;;;;;;;1.75;1.75;;;;;26.64;36.05;101632.66;5059318;28;45657;-69
2023/07/17 08:02:45;;;;;;;;;2.00;2.00;;;;;26.72;36.40;101627.25;5059440;28;45239;-68
2023/07/17 08:05:11;;;;;;;;;2.00;1.75;;;;;27.03;36.19;101627.84;5059061;28;49028;-68
2023/07/17 08:07:36;;;;;;;;;4.00;2.25;;;;;27.22;35.11;101643.31;5059457;28;45181;-68
2023/07/17 08:10:02;;;;;;;;;3.00;2.00;;;;;27.33;34.81;101634.84;5059003;28;45379;-68
2023/07/17 08:12:29;;;;;;;;;2.00;1.50;;;;;27.42;34.76;101641.28;5057413;28;45322;-68
2023/07/17 08:14:54;;;;;;;;;4.75;2.25;;;;;27.28;34.78;101639.97;5057125;28;46579;-67
2023/07/17 08:17:19;;;;;;;;;5.25;3.00;;;;;27.10;34.70;101639.94;5058852;28;45437;-68
2023/07/17 08:19:45;;;;;;;;;2.00;2.00;;;;;26.63;35.39;101641.06;5059165;28;45481;-67
2023/07/17 08:22:10;;;;;;;;;1.00;1.00;;;;;26.98;35.28;101643.06;5058669;28;57560;-69
2023/07/17 08:24:35;;;;;;;;;1.50;1.50;;;;;27.26;35.12;101642.00;5058749;28;46312;-68
2023/07/17 08:27:01;;;;;;;;;2.00;2.00;;;;;27.55;34.93;101643.69;5058948;28;45493;-69
2023/07/17 08:29:26;;;;;;;;;2.25;1.50;;;;;27.63;34.90;101652.88;5058642;28;51964;-68
2023/07/17 08:31:51;;;;;;;;;3.00;2.00;;;;;27.50;34.09;101658.75;5058866;28;45368;-68
2023/07/17 08:34:20;;;;;;;;;4.50;4.25;;;;;27.31;34.26;101653.41;5058836;28;46257;-69
2023/07/17 08:36:46;;;;;;;;;3.25;1.25;;;;;26.95;34.90;101662.66;5058853;28;45394;-68
2023/07/17 08:39:11;;;;;;;;;3.50;2.00;;;;;26.65;35.03;101659.16;5058592;28;45275;-69
2023/07/17 08:41:39;;;;;;;;;2.00;2.00;;;;;26.61;35.01;101659.63;5054155;28;48382;-69
2023/07/17 08:44:05;;;;;;;;;0.00;0.00;;;;;26.78;35.38;101656.06;5057386;28;46464;-69
2023/07/17 08:46:33;;;;;;;;;4.00;1.00;;;;;26.89;34.97;101652.22;5058101;28;45598;-68
2023/07/17 08:49:00;;;;;;;;;1.00;1.00;;;;;26.80;34.76;101659.50;5058887;28;45466;-68
2023/07/17 08:51:27;;;;;;;;;0.50;0.50;;;;;26.83;35.14;101637.19;5058424;28;45458;-69
2023/07/17 08:53:55;;;;;;;;;1.00;1.00;;;;;27.01;35.02;101646.38;5058636;28;45345;-67
2023/07/17 08:56:20;;;;;;;;;3.00;1.75;;;;;27.41;34.75;101642.31;5058350;28;45442;-68
2023/07/17 08:58:46;;;;;;;;;2.75;2.75;;;;;27.56;34.19;101653.69;5058136;28;45312;-68
2023/07/17 09:01:12;;;;;;;;;1.75;1.75;;;;;27.28;34.02;101647.34;5058724;28;45610;-68
2023/07/17 09:03:38;;;;;;;;;1.75;0.50;;;;;27.39;33.92;101658.97;5058502;28;45283;-69
2023/07/17 09:06:04;;;;;;;;;4.00;2.00;;;;;27.44;33.51;101653.88;5058685;28;45390;-70
2023/07/17 09:08:30;;;;;;;;;2.50;2.50;;;;;27.43;33.90;101652.16;5058882;28;45374;-69
2023/07/17 09:11:03;;;;;;;;;1.25;1.25;;;;;27.72;33.85;101645.56;5057991;28;45498;-69
2023/07/17 09:13:45;;;;;;;;;1.50;1.50;;;;;28.05;33.79;101652.19;5058723;28;46110;-68
2023/07/17 09:16:18;;;;;;;;;1.00;1.00;;;;;28.00;32.71;101630.59;5058373;28;45238;-69
2023/07/17 09:18:48;;;;;;;;;1.50;1.50;;;;;28.25;32.62;101642.66;5058653;28;45236;-69
2023/07/17 09:21:15;;;;;;;;;0.50;0.50;;;;;27.92;32.56;101655.34;5058030;28;45541;-68
2023/07/17 09:23:47;;;;;;;;;1.50;1.50;;;;;27.84;32.25;101650.63;5058389;28;45405;-67
2023/07/17 09:26:14;;;;;;;;;0.50;0.50;;;;;27.72;32.94;101660.19;5059281;28;45325;-68
2023/07/17 09:28:50;;;;;;;;;2.50;1.75;;;;;27.99;32.57;101655.56;5062060;28;45504;-68
2023/07/17 09:31:44;;;;;;;;;0.75;0.25;;;;;27.73;31.36;101659.16;5060820;28;45417;-68
2023/07/17 09:34:13;;;;;;;;;1.25;1.25;;;;;27.94;32.53;101655.19;5032789;28;54522;-69
2023/07/17 09:36:38;;;;;;;;;1.50;1.50;;;;;28.34;32.14;101652.72;5060321;28;45346;-68
2023/07/17 09:39:05;;;;;;;;;1.00;1.00;;;;;28.28;31.42;101642.34;5061016;28;45379;-68
2023/07/17 09:41:31;;;;;;;;;0.75;0.75;;;;;27.95;32.17;101663.28;5061310;28;45795;-69
2023/07/17 09:43:59;;;;;;;;;1.00;1.00;;;;;28.13;31.39;101653.09;5061112;28;46219;-68
2023/07/17 09:46:29;;;;;;;;;1.50;1.25;;;;;28.45;32.12;101648.81;5059998;28;45392;-68
2023/07/17 09:48:55;;;;;;;;;1.50;1.50;;;;;28.59;31.36;101656.47;5059295;28;45298;-69
2023/07/17 09:51:21;;;;;;;;;0.75;0.75;;;;;28.42;32.15;101649.13;5061415;28;45312;-67
2023/07/17 09:53:47;;;;;;;;;5.75;2.75;;;;;28.79;31.31;101648.84;5061265;28;46042;-68
2023/07/17 09:56:15;;;;;;;;;1.00;1.00;;;;;29.11;30.80;101653.59;5061201;28;45303;-68
2023/07/17 09:58:48;;;;;;;;;2.00;0.50;;;;;29.06;30.69;101670.66;5061245;28;45364;-69
2023/07/17 10:01:19;;;;;;;;;1.75;0.75;;;;;29.04;30.10;101653.41;5061294;28;45343;-68
2023/07/17 10:03:47;;;;;;;;;0.75;0.75;;;;;29.06;30.11;101656.88;5061185;28;46330;-68
2023/07/17 10:06:14;;;;;;;;;0.50;0.50;;;;;28.97;29.66;101657.88;5061275;28;45314;-68
2023/07/17 10:08:44;;;;;;;;;0.75;0.75;;;;;28.85;30.06;101646.25;5061518;28;45448;-68
2023/07/17 10:11:09;;;;;;;;;0.50;0.50;;;;;29.00;30.67;101656.69;5060866;28;45257;-67
2023/07/17 10:13:35;;;;;;;;;0.75;0.50;;;;;29.16;30.04;101653.97;5061188;28;46294;-68
2023/07/17 10:16:01;;;;;;;;;2.25;1.00;;;;;29.15;29.60;101666.91;5061424;28;45232;-69
2023/07/17 10:18:26;;;;;;;;;0.25;0.25;;;;;29.25;30.15;101652.94;5060227;28;45466;-68
2023/07/17 10:20:53;;;;;;;;;2.50;1.00;;;;;29.11;30.25;101659.97;5060883;28;49107;-69
2023/07/17 10:23:26;;;;;;;;;1.25;1.25;;;;;29.13;30.33;101657.03;5058655;28;45337;-67
2023/07/17 10:26:05;;;;;;;;;0.50;0.50;;;;;29.01;30.27;101653.72;5060829;28;45577;-69
2023/07/17 10:28:32;;;;;;;;;2.00;1.00;;;;;28.91;30.91;101662.19;5061325;28;45388;-68
2023/07/17 10:31:07;;;;;;;;;1.25;1.00;;;;;29.21;31.05;101657.06;5060734;28;45315;-68
2023/07/17 10:33:36;;;;;;;;;1.25;0.75;;;;;28.68;30.61;101658.22;5060837;28;46456;-68
2023/07/17 10:36:02;;;;;;;;;3.00;1.00;;;;;28.78;30.23;101664.53;5060432;28;45382;-70
2023/07/17 10:38:35;;;;;;;;;0.50;0.50;;;;;29.05;30.15;101648.75;5060821;28;45261;-67
2023/07/17 10:41:20;;;;;;;;;1.50;1.50;;;;;29.09;30.21;101648.25;5060003;28;45232;-68
2023/07/17 10:43:51;;;;;;;;;0.50;0.50;;;;;29.28;29.65;101658.09;5033126;28;46185;-68
2023/07/17 10:46:17;;;;;;;;;0.00;0.00;;;;;29.26;30.21;101652.75;5060433;28;45311;-68
2023/07/17 10:48:42;;;;;;;;;2.00;0.75;;;;;29.48;29.45;101658.69;5060473;28;45504;-68
2023/07/17 10:51:07;;;;;;;;;0.50;0.50;;;;;29.48;29.61;101655.94;5058757;28;45672;-68
2023/07/17 10:53:33;;;;;;;;;1.50;1.25;;;;;29.64;29.31;101654.03;5060505;28;45281;-68
2023/07/17 10:55:59;;;;;;;;;1.75;1.50;;;;;29.74;28.89;101640.06;5060293;28;45245;-68
2023/07/17 10:58:24;;;;;;;;;0.50;0.50;;;;;29.70;28.68;101646.94;5060756;28;45204;-67
2023/07/17 11:00:50;;;;;;;;;2.00;2.00;;;;;29.84;28.98;101650.94;5060502;28;45178;-67
2023/07/17 11:03:17;;;;;;;;;2.75;1.00;;;;;29.82;28.91;101650.25;5060542;28;46622;-68
2023/07/17 11:05:44;;;;;;;;;0.00;0.00;;;;;29.88;29.41;101641.25;5060536;28;45304;-68
2023/07/17 11:08:12;;;;;;;;;1.50;0.50;;;;;29.76;28.78;101656.47;5059132;28;45371;-68
2023/07/17 11:10:41;;;;;;;;;2.00;0.75;;;;;29.78;28.72;101652.47;5059847;28;45530;-68
2023/07/17 11:13:07;;;;;;;;;0.75;0.75;;;;;29.69;28.69;101659.03;5060396;28;45453;-68
2023/07/17 11:15:34;;;;;;;;;0.75;0.75;;;;;29.84;28.29;101656.47;5060309;28;45324;-70
2023/07/17 11:18:01;;;;;;;;;0.25;0.25;;;;;29.58;28.23;101645.59;5060408;28;45324;-68
2023/07/17 11:20:29;;;;;;;;;2.00;1.00;;;;;29.95;28.05;101656.97;5060052;28;45489;-69
2023/07/17 11:22:55;;;;;;;;;1.00;1.00;;;;;29.94;28.33;101660.78;5060135;28;46347;-70
2023/07/17 11:25:25;;;;;;;;;1.00;1.00;;;;;30.23;28.60;101649.16;5060030;28;45283;-68
2023/07/17 11:27:51;;;;;;;;;4.00;1.25;;;;;30.36;27.61;101652.25;5060446;28;45364;-68
2023/07/17 11:30:29;;;;;;;;;0.50;0.50;;;;;30.03;28.04;101639.50;5060275;28;45239;-68
2023/07/17 11:32:57;;;;;;;;;1.25;0.50;;;;;30.34;26.99;101661.78;5047025;28;46059;-68
2023/07/17 11:35:22;;;;;;;;;1.00;1.00;;;;;30.35;27.90;101655.19;5060120;28;45347;-68
2023/07/17 11:37:48;;;;;;;;;0.75;0.75;;;;;30.32;27.46;101656.41;5060679;28;45306;-68
2023/07/17 11:40:13;;;;;;;;;1.75;1.75;;;;;30.48;27.57;101659.13;5059594;28;45351;-68
2023/07/17 11:43:12;;;;;;;;;2.00;2.00;;;;;30.39;27.39;101651.88;5060241;28;46093;-67
2023/07/17 11:45:37;;;;;;;;;2.50;1.00;;;;;30.54;27.44;101665.03;5033339;28;45515;-68
2023/07/17 11:48:03;;;;;;;;;0.00;0.00;;;;;30.59;27.32;101659.81;5059690;28;45544;-68
2023/07/17 11:50:29;;;;;;;;;1.50;1.00;;;;;30.85;26.88;101652.09;5059549;28;45447;-69
2023/07/17 11:53:07;;;;;;;;;1.00;1.00;;;;;30.89;26.90;101652.56;5059650;28;45637;-69
2023/07/17 11:55:37;;;;;;;;;3.00;1.50;;;;;30.94;26.95;101656.56;5046482;28;45382;-68
2023/07/17 11:58:15;;;;;;;;;0.75;0.75;;;;;30.99;27.02;101659.63;5059637;28;45278;-62
2023/07/17 12:00:46;;;;;;;;;2.50;1.00;;;;;30.89;26.56;101644.28;5059961;28;45467;-62
2023/07/17 12:03:11;;;;;;;;;0.25;0.00;;;;;30.94;26.30;101658.47;5059955;28;45356;-62
2023/07/17 12:05:37;;;;;;;;;0.50;0.50;;;;;30.98;26.22;101663.44;5059171;28;45255;-61
2023/07/17 12:08:03;;;;;;;;;0.75;0.75;;;;;31.07;26.34;101650.44;5060013;28;45254;-62
2023/07/17 12:10:29;;;;;;;;;0.25;0.25;;;;;31.17;26.21;101651.06;5059280;28;45380;-61
2023/07/17 12:12:55;;;;;;;;;1.00;1.00;;;;;31.09;25.93;101640.03;5059601;28;46688;-63
2023/07/17 12:15:22;;;;;;;;;0.75;0.75;;;;;31.23;26.30;101642.03;5059813;28;45374;-63
2023/07/17 12:17:48;;;;;;;;;0.00;0.00;;;;;31.18;25.86;101648.13;5059601;28;45333;-63
2023/07/17 12:20:15;;;;;;;;;0.50;0.50;;;;;31.29;26.53;101638.53;5059861;28;45323;-62
2023/07/17 12:22:41;;;;;;;;;0.50;0.50;;;;;31.33;26.35;101637.09;5052168;28;46052;-62
2023/07/17 12:25:07;;;;;;;;;1.75;1.00;;;;;31.26;25.64;101630.59;5049254;28;45412;-61
2023/07/17 12:27:32;;;;;;;;;0.50;0.50;;;;;31.23;25.70;101653.09;5059110;28;45230;-61
2023/07/17 12:29:58;;;;;;;;;3.00;1.00;;;;;31.44;25.91;101631.16;5053305;28;61998;-62
2023/07/17 12:32:23;;;;;;;;;0.75;0.75;;;;;31.54;25.16;101640.06;5058027;28;54620;-62
2023/07/17 12:34:48;;;;;;;;;1.25;1.25;;;;;31.32;25.30;101640.06;5059120;28;45331;-60
2023/07/17 12:37:13;;;;;;;;;0.50;0.50;;;;;31.45;25.14;101643.09;5059254;28;45282;-62
2023/07/17 12:39:39;;;;;;;;;2.00;0.00;;;;;31.61;25.77;101631.88;5058369;28;56169;-62
2023/07/17 12:42:04;;;;;;;;;0.00;0.00;;;;;31.77;25.12;101628.13;5058265;28;51171;-61
2023/07/17 12:44:30;;;;;;;;;0.00;0.00;;;;;31.81;24.94;101640.56;5058163;28;45233;-62
2023/07/17 12:46:55;;;;;;;;;1.00;1.00;;;;;31.94;24.79;101640.78;5058855;28;45255;-64
2023/07/17 12:49:20;;;;;;;;;0.00;0.00;;;;;31.81;24.35;101640.56;5058328;28;48195;-62
2023/07/17 12:51:45;;;;;;;;;0.00;0.00;;;;;31.70;25.09;101633.56;5057488;28;56102;-61
2023/07/17 12:54:11;;;;;;;;;0.50;0.50;;;;;32.21;25.18;101633.78;5058164;28;45436;-61
2023/07/17 12:56:36;;;;;;;;;0.50;0.50;;;;;32.27;24.80;101641.34;5058776;28;45213;-61
2023/07/17 12:59:01;;;;;;;;;1.75;0.00;;;;;32.09;24.77;101613.06;5058204;28;57266;-62
2023/07/17 13:01:27;;;;;;;;;1.50;0.50;;;;;32.25;24.34;101644.28;5060073;28;45303;-61
2023/07/17 13:03:52;;;;;;;;;0.25;0.25;;;;;32.40;24.36;101633.22;5058812;28;45654;-63
2023/07/17 13:06:19;;;;;;;;;0.25;0.00;;;;;32.59;24.39;101632.63;5062406;28;45267;-62
2023/07/17 13:08:44;;;;;;;;;1.00;1.00;;;;;32.41;23.98;101631.31;5062366;28;45400;-63
2023/07/17 13:11:10;;;;;;;;;1.00;0.75;;;;;32.43;23.44;101640.28;5061162;28;46066;-61
2023/07/17 13:13:35;;;;;;;;;1.00;0.00;;;;;32.23;23.49;101627.00;5061977;28;51572;-63
2023/07/17 13:16:00;;;;;;;;;0.00;0.00;;;;;32.18;23.26;101634.16;5061929;28;45518;-62
2023/07/17 13:18:26;;;;;;;;;0.00;0.00;;;;;32.30;23.38;101635.41;5061975;28;51720;-63
2023/07/17 13:20:51;;;;;;;;;0.00;0.00;;;;;32.48;22.87;101637.81;5060756;28;61010;-63
2023/07/17 13:23:16;;;;;;;;;0.00;0.00;;;;;32.52;22.81;101637.22;5062120;28;45442;-62
2023/07/17 13:25:41;;;;;;;;;0.75;0.75;;;;;32.23;23.00;101627.00;5061599;28;49197;-61
2023/07/17 13:28:07;;;;;;;;;1.00;0.00;;;;;32.37;23.00;101624.41;5077498;28;46019;-61
2023/07/17 13:30:32;;;;;;;;;0.00;0.00;;;;;32.35;22.80;101634.81;5061798;28;45288;-62
2023/07/17 13:32:57;;;;;;;;;0.00;0.00;;;;;32.30;23.10;101632.63;5062034;28;45263;-61
2023/07/17 13:35:23;;;;;;;;;0.50;0.50;;;;;32.24;22.98;101620.38;5061402;28;54785;-62
2023/07/17 13:37:48;;;;;;;;;0.00;0.00;;;;;32.44;23.42;101625.34;5061736;28;45486;-61
2023/07/17 13:40:13;;;;;;;;;0.00;0.00;;;;;32.55;22.72;101620.19;5061113;28;51318;-62
2023/07/17 13:42:39;;;;;;;;;0.00;0.00;;;;;32.73;22.65;101630.94;5061945;28;45252;-62
2023/07/17 13:45:05;;;;;;;;;0.75;0.75;;;;;32.65;22.27;101615.19;5061419;28;45236;-61
2023/07/17 13:47:30;;;;;;;;;0.25;0.00;;;;;32.95;22.20;101624.34;5061671;28;45216;-61
2023/07/17 13:49:55;;;;;;;;;0.25;0.25;;;;;32.85;22.15;101628.50;5060952;28;46053;-63
2023/07/17 13:52:21;;;;;;;;;1.00;1.00;;;;;32.80;22.52;101625.44;5077201;28;45437;-61
2023/07/17 13:54:46;;;;;;;;;0.75;0.75;;;;;32.85;22.34;101623.78;5059602;28;45209;-61
2023/07/17 13:57:11;;;;;;;;;3.50;0.50;;;;;33.02;22.06;101625.28;5061415;28;45442;-61
2023/07/17 13:59:36;;;;;;;;;0.00;0.00;;;;;33.03;21.61;101627.00;5060851;28;59713;-62
2023/07/17 14:02:02;;;;;;;;;0.00;0.00;;;;;32.96;22.08;101626.06;5061214;28;54412;-63
2023/07/17 14:04:27;;;;;;;;;0.00;0.00;;;;;32.97;22.01;101627.81;5061493;28;45391;-62
2023/07/17 14:06:53;;;;;;;;;0.00;0.00;;;;;33.38;22.15;101610.53;5061197;28;50612;-61
2023/07/17 14:09:18;;;;;;;;;0.00;0.00;;;;;33.37;22.35;101625.50;5061289;28;45318;-61
2023/07/17 14:11:44;;;;;;;;;1.00;1.00;;;;;33.49;22.05;101614.72;5060605;28;45343;-61
2023/07/17 14:14:09;;;;;;;;;0.00;0.00;;;;;33.50;21.63;101631.19;5059896;28;45425;-61
2023/07/17 14:16:35;;;;;;;;;0.25;0.25;;;;;33.57;21.82;101626.56;5060821;28;57146;-60
2023/07/17 14:19:00;;;;;;;;;0.00;0.00;;;;;33.75;21.83;101618.63;5061038;28;45349;-61
2023/07/17 14:21:26;;;;;;;;;0.00;0.00;;;;;33.68;21.64;101622.38;5059809;28;45391;-61
2023/07/17 14:23:51;;;;;;;;;0.50;0.00;;;;;33.78;22.04;101611.78;5061194;28;45521;-61
2023/07/17 14:26:17;;;;;;;;;0.00;0.00;;;;;33.94;21.59;101614.25;5059549;28;45481;-61
2023/07/17 14:28:42;;;;;;;;;0.00;0.00;;;;;33.72;21.84;101616.19;5060883;28;45319;-63
2023/07/17 14:31:08;;;;;;;;;2.00;0.00;;;;;33.69;21.65;101624.94;5061157;28;45237;-63
2023/07/17 14:33:33;;;;;;;;;0.25;0.00;;;;;33.48;21.48;101616.63;5060889;28;45224;-62
2023/07/17 14:35:58;;;;;;;;;0.00;0.00;;;;;33.63;22.02;101619.31;5060989;28;45459;-63
2023/07/17 14:38:24;;;;;;;;;0.25;0.25;;;;;34.04;22.22;101608.34;5060016;28;64090;-62
2023/07/17 14:40:50;;;;;;;;;0.00;0.00;;;;;34.14;21.62;101609.69;5060662;28;45295;-62
2023/07/17 14:43:15;;;;;;;;;0.50;0.50;;;;;34.28;21.82;101613.47;5061020;28;45150;-61
2023/07/17 14:45:41;;;;;;;;;0.00;0.00;;;;;34.33;21.58;101610.06;5060105;28;47348;-62
2023/07/17 14:48:06;;;;;;;;;1.00;0.50;;;;;34.31;21.32;101612.19;5060348;28;57051;-62
2023/07/17 14:50:32;;;;;;;;;1.00;1.00;;;;;34.09;21.46;101601.13;5060373;28;45379;-62
2023/07/17 14:52:57;;;;;;;;;0.75;0.75;;;;;34.42;22.28;101606.06;5060729;28;45388;-62
2023/07/17 14:55:23;;;;;;;;;2.00;1.00;;;;;34.58;21.46;101599.28;5060211;28;45331;-61
2023/07/17 14:57:49;;;;;;;;;0.75;0.75;;;;;34.74;20.85;101605.38;5060123;28;45460;-62
2023/07/17 15:00:15;;;;;;;;;5.25;2.25;;;;;34.56;21.31;101602.25;5060246;28;45373;-62
2023/07/17 15:02:40;;;;;;;;;2.50;2.50;;;;;34.49;21.05;101595.81;5060671;28;45295;-62
2023/07/17 15:05:06;;;;;;;;;4.25;3.00;;;;;34.78;21.16;101605.84;5060379;28;45433;-62
2023/07/17 15:07:32;;;;;;;;;2.25;2.25;;;;;34.69;20.78;101604.25;5060348;28;45252;-63
2023/07/17 15:09:58;;;;;;;;;4.75;2.00;;;;;34.35;20.56;101619.94;5058259;28;45340;-62
2023/07/17 15:12:23;;;;;;;;;2.75;2.75;;;;;34.26;20.88;101617.53;5060308;28;45160;-62
2023/07/17 15:14:49;;;;;;;;;4.50;3.00;;;;;34.60;20.78;101606.38;5059208;28;45469;-63
2023/07/17 15:17:14;;;;;;;;;2.25;2.25;;;;;34.90;20.43;101605.00;5060278;28;45599;-61
2023/07/17 15:19:41;;;;;;;;;1.75;1.75;;;;;35.06;20.84;101600.13;5059297;28;56322;-62
2023/07/17 15:22:09;;;;;;;;;3.00;3.00;;;;;35.10;20.63;101607.88;5060267;28;45298;-61
2023/07/17 15:24:35;;;;;;;;;1.75;1.75;;;;;35.08;20.57;101598.84;5057261;28;46194;-62
2023/07/17 15:27:01;;;;;;;;;2.50;2.50;;;;;35.24;20.61;101611.56;5059877;28;45911;-61
2023/07/17 15:29:26;;;;;;;;;2.00;2.00;;;;;34.81;20.42;101595.13;5059647;28;45311;-62
2023/07/17 15:31:51;;;;;;;;;3.50;2.00;;;;;34.84;21.14;101589.13;5059792;28;50183;-61
2023/07/17 15:34:17;;;;;;;;;1.75;1.75;;;;;34.37;20.79;101603.88;5060153;28;45528;-61
2023/07/17 15:36:42;;;;;;;;;1.75;1.75;;;;;33.80;21.05;101606.88;5058815;28;47076;-63
2023/07/17 15:39:07;;;;;;;;;1.50;1.50;;;;;34.00;21.48;101612.59;5055521;28;45313;-61
2023/07/17 15:41:33;;;;;;;;;0.25;0.25;;;;;33.71;21.39;101608.06;5051973;28;45234;-61
2023/07/17 15:43:59;;;;;;;;;3.00;2.00;;;;;33.71;21.64;101605.28;5060075;28;45292;-62
2023/07/17 15:46:24;;;;;;;;;2.00;2.00;;;;;33.90;21.38;101617.66;5059989;28;45362;-63
2023/07/17 15:48:49;;;;;;;;;1.50;1.50;;;;;34.04;21.10;101609.19;5058384;28;45260;-60
2023/07/17 15:51:15;;;;;;;;;1.75;1.50;;;;;34.30;21.46;101602.97;5060648;28;45227;-62
2023/07/17 15:53:40;;;;;;;;;0.75;0.75;;;;;34.68;20.83;101611.75;5059501;28;45278;-62
2023/07/17 15:56:05;;;;;;;;;1.25;1.25;;;;;35.00;20.70;101598.19;5052916;28;46581;-62
2023/07/17 15:58:31;;;;;;;;;3.00;1.50;;;;;35.39;20.84;101603.84;5058292;28;45381;-62
2023/07/17 16:00:56;;;;;;;;;2.00;2.00;;;;;35.53;19.74;101599.16;5047696;28;45595;-62
2023/07/17 16:03:21;;;;;;;;;1.75;1.75;;;;;34.92;19.64;101602.00;5057871;28;45267;-62
2023/07/17 16:05:47;;;;;;;;;0.75;0.75;;;;;34.95;20.45;101600.75;5060084;28;46466;-63
2023/07/17 16:08:12;;;;;;;;;1.75;1.75;;;;;34.98;20.14;101609.53;5053852;28;45347;-63
2023/07/17 16:10:37;;;;;;;;;2.00;1.00;;;;;34.99;20.18;101600.09;5058613;28;45386;-57